Time;durP1;ratioP1;P1;durP2;ratioP2;P2;SDS_P1;SDS_P2;PMS_P1;PMS_P2;Temp;Humidity;BMP_temperature;BMP_pressure;BME280_temperature;BME280_humidity;BME280_pressure;Samples;Min_cycle;Max_cycle;Signal;HPM_P1;HPM_P2
2022/12/07 00:01:38;;;;;;;0.00;0.00;;;;;;;1.73;94.68;101162.84;6207049;23;20000;-75
2022/12/07 00:04:11;;;;;;;0.00;0.00;;;;;;;1.71;94.50;101160.31;6162571;23;20499;-75
2022/12/07 00:07:07;;;;;;;;;;;;;;;;;;;;;
2022/12/07 00:09:42;;;;;;;;;;;;;;;;;;;;;
2022/12/07 00:12:08;;;;;;;0.00;0.00;;;;;;;1.55;95.14;101153.28;6211684;23;20088;-75
2022/12/07 00:14:33;;;;;;;0.00;0.00;;;;;;;1.52;95.09;101155.50;6159864;23;20083;-75
2022/12/07 00:16:59;;;;;;;0.00;0.00;;;;;;;1.55;95.72;101160.56;6156557;23;20015;-76
2022/12/07 00:19:32;;;;;;;0.00;0.00;;;;;;;1.45;95.15;101147.34;6160288;23;20008;-76
2022/12/07 00:21:57;;;;;;;0.00;0.00;;;;;;;1.59;95.38;101150.22;6180608;23;20111;-75
2022/12/07 00:24:23;;;;;;;0.00;0.00;;;;;;;1.66;95.35;101145.75;6185900;23;20087;-75
2022/12/07 00:26:48;;;;;;;0.00;0.00;;;;;;;1.59;95.48;101134.03;6211024;23;20536;-76
2022/12/07 00:29:20;;;;;;;0.00;0.00;;;;;;;1.67;95.19;101136.63;6183418;23;20344;-77
2022/12/07 00:31:46;;;;;;;0.00;0.00;;;;;;;1.77;95.35;101145.25;6211269;23;20424;-78
2022/12/07 00:34:18;;;;;;;0.00;0.00;;;;;;;1.71;94.97;101137.94;6184653;23;20432;-77
2022/12/07 00:36:43;;;;;;;0.00;0.00;;;;;;;1.51;94.77;101111.56;6185159;23;20335;-80
2022/12/07 00:39:09;;;;;;;0.00;0.00;;;;;;;1.52;94.69;101123.16;6212892;23;20008;-75
2022/12/07 00:41:34;;;;;;;0.00;0.00;;;;;;;1.45;95.27;101128.50;6183795;23;20019;-75
2022/12/07 00:44:00;;;;;;;0.00;0.00;;;;;;;1.44;95.38;101126.81;6186303;23;20008;-75
2022/12/07 00:46:26;;;;;;;0.03;0.03;;;;;;;1.25;95.48;101108.53;6157707;23;20087;-77
2022/12/07 00:48:56;;;;;;;0.10;0.10;;;;;;;1.16;95.41;101097.03;6160129;23;20436;-79
2022/12/07 00:51:25;;;;;;;0.00;0.00;;;;;;;1.17;95.17;101114.88;6157058;23;20035;-77
2022/12/07 00:53:51;;;;;;;0.00;0.00;;;;;;;1.16;95.77;101124.78;6185577;23;20031;-77
2022/12/07 00:56:22;;;;;;;0.00;0.00;;;;;;;1.06;95.97;101121.53;6208465;23;20012;-77
2022/12/07 00:58:55;;;;;;;0.00;0.00;;;;;;;1.12;96.05;101128.88;6186145;23;20083;-76
2022/12/07 01:01:22;;;;;;;0.00;0.00;;;;;;;1.00;96.04;101122.28;6179701;23;20355;-78
2022/12/07 01:03:47;;;;;;;0.00;0.00;;;;;;;0.97;95.85;101123.50;6186122;23;20246;-77
2022/12/07 01:06:18;;;;;;;0.00;0.00;;;;;;;0.94;96.40;101126.56;6183079;23;20492;-77
2022/12/07 01:08:44;;;;;;;0.00;0.00;;;;;;;0.89;96.13;101126.28;6206253;23;20009;-76
2022/12/07 01:11:13;;;;;;;0.00;0.00;;;;;;;0.89;96.13;101133.53;6185591;23;20292;-76
2022/12/07 01:13:38;;;;;;;0.00;0.00;;;;;;;0.82;96.40;101134.28;6179121;23;19997;-74
2022/12/07 01:16:05;;;;;;;0.03;0.03;;;;;;;0.72;96.83;101122.94;6185838;23;20052;-77
2022/12/07 01:18:34;;;;;;;0.03;0.03;;;;;;;0.61;96.36;101116.13;6181408;23;20008;-76
2022/12/07 01:21:04;;;;;;;0.00;0.00;;;;;;;0.52;96.80;101112.66;6183697;23;20095;-75
2022/12/07 01:23:30;;;;;;;0.00;0.00;;;;;;;0.60;97.32;101124.38;6179186;23;20036;-76
2022/12/07 01:25:57;;;;;;;0.00;0.00;;;;;;;0.44;97.37;101104.69;6184005;23;20383;-75
2022/12/07 01:28:23;;;;;;;0.00;0.00;;;;;;;0.54;97.37;101125.13;6211463;23;20004;-76
2022/12/07 01:31:01;;;;;;;0.00;0.00;;;;;;;0.39;97.39;101107.09;6180499;23;20001;-76
2022/12/07 01:33:29;;;;;;;0.00;0.00;;;;;;;0.41;97.31;101118.53;6213188;23;20005;-75
2022/12/07 01:36:00;;;;;;;0.00;0.00;;;;;;;0.38;97.69;101124.28;6183197;23;20007;-76
2022/12/07 01:38:25;;;;;;;0.00;0.00;;;;;;;0.33;97.67;101123.97;6184202;23;20005;-75
2022/12/07 01:40:55;;;;;;;0.10;0.10;;;;;;;0.22;97.70;101110.94;6180651;23;20087;-76
2022/12/07 01:43:23;;;;;;;0.00;0.00;;;;;;;0.16;97.93;101110.66;6161545;23;20009;-76
2022/12/07 01:45:48;;;;;;;0.00;0.00;;;;;;;0.04;97.73;101095.94;6156463;23;20099;-76
2022/12/07 01:48:18;;;;;;;0.00;0.00;;;;;;;0.12;98.03;101114.72;6210952;23;20444;-76
2022/12/07 01:50:47;;;;;;;0.10;0.10;;;;;;;0.09;97.99;101112.38;6180931;23;20013;-75
2022/12/07 01:53:14;;;;;;;0.00;0.00;;;;;;;0.16;97.92;101113.34;6184031;23;20375;-75
2022/12/07 01:55:43;;;;;;;0.00;0.00;;;;;;;0.09;98.38;101101.63;6183983;23;20339;-75
2022/12/07 01:58:10;;;;;;;0.00;0.00;;;;;;;0.01;98.24;101085.53;6181783;23;20035;-76
2022/12/07 02:00:36;;;;;;;0.00;0.00;;;;;;;0.07;98.64;101108.19;6185031;23;20103;-76
2022/12/07 02:03:16;;;;;;;0.00;0.00;;;;;;;0.15;97.96;101122.41;6205613;23;20447;-76
2022/12/07 02:05:43;;;;;;;0.00;0.00;;;;;;;0.06;98.08;101107.38;6183615;23;20011;-76
2022/12/07 02:08:10;;;;;;;0.00;0.00;;;;;;;0.10;98.42;101119.44;6206236;23;20008;-75
2022/12/07 02:10:36;;;;;;;0.00;0.00;;;;;;;-0.02;98.75;101104.75;6182163;23;20005;-75
2022/12/07 02:13:03;;;;;;;0.00;0.00;;;;;;;0.16;98.91;101121.41;6184503;23;20615;-74
2022/12/07 02:15:54;;;;;;;0.10;0.10;;;;;;;0.36;99.38;101115.53;6207022;23;20011;-75
2022/12/07 02:18:36;;;;;;;0.00;0.00;;;;;;;0.36;98.33;101102.06;6172950;23;20494;-75
2022/12/07 02:21:20;;;;;;;0.00;0.00;;;;;;;0.41;97.98;101123.91;6209926;23;20180;-75
2022/12/07 02:23:54;;;;;;;0.00;0.00;;;;;;;0.52;98.49;101134.19;6180214;23;20432;-76
2022/12/07 02:26:41;;;;;;;0.00;0.00;;;;;;;0.66;98.17;101137.13;6183017;23;20354;-78
2022/12/07 02:29:29;;;;;;;0.00;0.00;;;;;;;0.76;98.18;101131.47;6180450;23;20004;-77
2022/12/07 02:32:06;;;;;;;0.08;0.08;;;;;;;0.83;97.56;101127.88;6180372;23;20058;-76
2022/12/07 02:34:44;;;;;;;0.00;0.00;;;;;;;0.83;97.42;101111.72;6182426;23;20031;-76
2022/12/07 02:37:25;;;;;;;0.00;0.00;;;;;;;0.99;97.71;101126.88;6180613;23;20009;-75
2022/12/07 02:39:57;;;;;;;0.00;0.00;;;;;;;1.08;97.74;101133.00;6183066;23;20084;-76
2022/12/07 02:42:36;;;;;;;0.10;0.10;;;;;;;1.11;96.95;101116.44;6180113;23;20005;-79
2022/12/07 02:45:03;;;;;;;0.00;0.00;;;;;;;1.18;97.13;101122.75;6183530;23;20079;-77
2022/12/07 02:47:31;;;;;;;0.00;0.00;;;;;;;1.25;97.50;101127.41;6154008;23;20004;-77
2022/12/07 02:49:59;;;;;;;0.10;0.10;;;;;;;1.24;97.49;101117.63;6183536;23;20000;-77
2022/12/07 02:52:29;;;;;;;0.00;0.00;;;;;;;1.23;97.06;101116.81;6182558;23;20008;-79
2022/12/07 02:54:55;;;;;;;0.00;0.00;;;;;;;1.32;97.26;101110.28;6183767;23;20011;-78
2022/12/07 02:57:58;;;;;;;0.00;0.00;;;;;;;1.49;97.28;101120.84;6182292;23;20339;-78
2022/12/07 03:00:24;;;;;;;0.00;0.00;;;;;;;1.51;96.87;101106.16;6184534;23;20450;-78
2022/12/07 03:03:09;;;;;;;0.00;0.00;;;;;;;1.63;96.63;101108.38;6178130;23;20021;-78
2022/12/07 03:05:55;;;;;;;0.00;0.00;;;;;;;1.63;96.41;101102.97;6210248;23;20005;-78
2022/12/07 03:08:56;;;;;;;0.00;0.00;;;;;;;1.72;96.58;101112.59;6182245;23;20474;-77
2022/12/07 03:11:29;;;;;;;0.00;0.00;;;;;;;1.65;96.50;101095.53;6183805;23;19996;-78
2022/12/07 03:14:18;;;;;;;;;;;;;;;;;;;;;
2022/12/07 03:16:53;;;;;;;0.00;0.00;;;;;;;1.91;95.33;101108.44;6206201;23;20502;-78
2022/12/07 03:19:22;;;;;;;0.00;0.00;;;;;;;1.97;95.92;101105.00;6181991;23;20382;-78
2022/12/07 03:22:03;;;;;;;0.00;0.00;;;;;;;2.04;95.30;101102.34;6180030;23;20008;-77
2022/12/07 03:24:57;;;;;;;0.00;0.00;;;;;;;2.14;94.89;101104.75;6183518;23;20423;-77
2022/12/07 03:27:28;;;;;;;0.00;0.00;;;;;;;2.29;94.78;101123.56;6167380;23;20100;-77
2022/12/07 03:30:13;;;;;;;0.00;0.00;;;;;;;2.31;94.09;101110.69;6184700;23;20082;-77
2022/12/07 03:33:04;;;;;;;0.00;0.00;;;;;;;2.32;93.46;101112.38;6184808;23;20009;-77
2022/12/07 03:35:40;;;;;;;0.00;0.00;;;;;;;2.33;94.05;101119.44;6203650;23;20058;-76
2022/12/07 03:38:17;;;;;;;0.00;0.00;;;;;;;2.37;94.12;101115.34;6186117;23;19996;-78
2022/12/07 03:41:07;;;;;;;0.00;0.00;;;;;;;2.25;93.38;101096.97;6180998;23;20008;-78
2022/12/07 03:43:33;;;;;;;0.00;0.00;;;;;;;2.36;93.46;101108.25;6185141;23;20008;-77
2022/12/07 03:46:09;;;;;;;0.00;0.00;;;;;;;2.34;93.28;101099.53;6182391;23;20005;-77
2022/12/07 03:48:40;;;;;;;0.00;0.00;;;;;;;2.33;94.01;101098.66;6184277;23;20032;-74
2022/12/07 03:51:19;;;;;;;0.00;0.00;;;;;;;2.51;93.96;101116.25;6181272;23;20004;-77
2022/12/07 03:54:05;;;;;;;0.00;0.00;;;;;;;2.49;93.69;101108.34;6181543;23;20091;-77
2022/12/07 03:56:32;;;;;;;0.00;0.00;;;;;;;2.57;93.12;101110.91;6209895;23;20001;-77
2022/12/07 03:58:58;;;;;;;0.00;0.00;;;;;;;2.49;93.04;101097.56;6211505;23;20374;-76
2022/12/07 04:01:24;;;;;;;0.00;0.00;;;;;;;2.59;92.98;101108.84;6181924;23;20058;-77
2022/12/07 04:03:50;;;;;;;0.10;0.10;;;;;;;2.51;93.24;101095.50;6184499;23;20084;-76
2022/12/07 04:06:18;;;;;;;0.00;0.00;;;;;;;2.36;92.26;101083.97;6130196;23;20032;-77
2022/12/07 04:08:43;;;;;;;0.00;0.00;;;;;;;2.40;92.46;101098.75;6159361;23;20013;-77
2022/12/07 04:11:09;;;;;;;0.00;0.00;;;;;;;2.38;91.94;101103.47;6157459;23;20035;-77
2022/12/07 04:14:18;;;;;;;0.00;0.00;;;;;;;2.17;91.87;101078.19;6157023;23;20004;-76
2022/12/07 04:16:20;;;;;;;0.00;0.00;;;;;;;2.35;92.09;101106.56;6210865;23;20004;-78
2022/12/07 04:18:45;;;;;;;0.10;0.10;;;;;;;2.37;92.37;101109.94;6154684;23;20099;-77
2022/12/07 04:21:11;;;;;;;0.00;0.00;;;;;;;2.29;91.73;101101.97;6161299;23;20313;-76
2022/12/07 04:23:38;;;;;;;0.10;0.10;;;;;;;2.13;91.88;101079.59;6180915;23;20012;-77
2022/12/07 04:26:04;;;;;;;0.00;0.00;;;;;;;2.21;91.46;101098.38;6184542;23;20175;-78
2022/12/07 04:28:30;;;;;;;0.00;0.00;;;;;;;2.16;92.04;101108.94;6183741;23;20036;-77
2022/12/07 04:30:55;;;;;;;0.00;0.00;;;;;;;2.01;91.79;101091.97;6161166;23;20012;-75
2022/12/07 04:33:21;;;;;;;0.10;0.10;;;;;;;1.89;92.07;101097.03;6212039;23;20079;-77
2022/12/07 04:35:46;;;;;;;0.00;0.00;;;;;;;1.64;92.04;101091.19;6156170;23;20096;-77
2022/12/07 04:38:11;;;;;;;0.00;0.00;;;;;;;1.24;92.48;101078.03;6134144;23;20083;-76
2022/12/07 04:40:37;;;;;;;0.08;0.08;;;;;;;1.04;92.45;101084.03;6156711;23;20089;-75
2022/12/07 04:43:02;;;;;;;0.00;0.00;;;;;;;0.87;93.39;101080.69;6210278;23;20004;-76
2022/12/07 04:45:28;;;;;;;0.00;0.00;;;;;;;0.62;93.81;101071.22;6159182;23;20151;-77
2022/12/07 04:48:00;;;;;;;0.10;0.10;;;;;;;0.49;94.33;101071.84;6184206;23;20005;-77
2022/12/07 04:50:26;;;;;;;0.00;0.00;;;;;;;0.48;94.37;101084.47;6187175;23;20013;-76
2022/12/07 04:52:51;;;;;;;0.00;0.00;;;;;;;0.44;94.84;101085.84;6160003;23;20458;-77
2022/12/07 04:55:17;;;;;;;0.00;0.00;;;;;;;0.55;94.97;101078.34;6155016;23;20012;-77
2022/12/07 04:57:44;;;;;;;0.03;0.03;;;;;;;0.66;94.88;101075.22;6159382;23;20071;-78
2022/12/07 05:00:10;;;;;;;0.00;0.00;;;;;;;0.86;94.49;101086.25;6161430;23;20634;-76
2022/12/07 05:02:35;;;;;;;0.00;0.00;;;;;;;0.97;94.38;101082.28;6157728;23;20108;-77
2022/12/07 05:05:01;;;;;;;0.08;0.08;;;;;;;1.05;94.29;101079.47;6156224;23;20008;-77
2022/12/07 05:07:26;;;;;;;0.00;0.00;;;;;;;1.10;94.04;101071.66;6159971;23;20007;-77
2022/12/07 05:09:52;;;;;;;0.00;0.00;;;;;;;0.94;93.42;101043.06;6155533;23;20008;-78
2022/12/07 05:12:20;;;;;;;0.00;0.00;;;;;;;0.82;93.91;101048.09;6160347;23;20019;-77
2022/12/07 05:14:45;;;;;;;0.00;0.00;;;;;;;0.66;94.41;101053.69;6157212;23;20116;-77
2022/12/07 05:17:18;;;;;;;0.00;0.00;;;;;;;0.43;94.53;101059.97;6159445;23;20012;-77
2022/12/07 05:19:43;;;;;;;0.00;0.00;;;;;;;0.23;94.47;101054.25;6159890;23;20009;-78
2022/12/07 05:22:11;;;;;;;0.00;0.00;;;;;;;0.10;95.22;101062.97;6134223;23;20323;-77
2022/12/07 05:24:36;;;;;;;0.00;0.00;;;;;;;0.07;95.86;101081.31;6163275;23;20510;-76
2022/12/07 05:27:02;;;;;;;0.00;0.00;;;;;;;0.04;95.43;101093.25;6182009;23;20008;-76
2022/12/07 05:29:27;;;;;;;0.00;0.00;;;;;;;-0.19;95.75;101066.38;6185531;23;20004;-75
2022/12/07 05:31:53;;;;;;;0.00;0.00;;;;;;;-0.27;95.45;101080.72;6157768;23;20012;-75
2022/12/07 05:34:18;;;;;;;0.00;0.00;;;;;;;-0.38;96.27;101062.31;6162716;23;20309;-75
2022/12/07 05:36:44;;;;;;;0.00;0.00;;;;;;;-0.27;96.71;101091.47;6190741;23;20018;-75
2022/12/07 05:39:10;;;;;;;0.00;0.00;;;;;;;-0.38;96.04;101078.44;6160749;23;20009;-75
2022/12/07 05:44:19;;;;;;;0.10;0.10;;;;;;;-0.54;96.83;101072.16;6216379;23;20335;-78
2022/12/07 05:46:45;;;;;;;0.00;0.00;;;;;;;-0.51;97.13;101078.19;6165115;23;20005;-77
2022/12/07 05:49:10;;;;;;;0.10;0.10;;;;;;;-0.49;97.57;101084.22;6158065;23;20019;-78
2022/12/07 05:51:36;;;;;;;0.00;0.00;;;;;;;-0.60;96.81;101070.19;6186415;23;20039;-75
2022/12/07 05:54:01;;;;;;;0.10;0.10;;;;;;;-0.69;97.34;101060.47;6133435;23;20005;-75
2022/12/07 05:56:27;;;;;;;0.00;0.00;;;;;;;-0.68;97.37;101062.16;6186071;23;20007;-76
2022/12/07 06:01:40;;;;;;;0.00;0.00;;;;;;;-0.74;97.65;101057.50;6189709;23;20015;-77
2022/12/07 06:04:05;;;;;;;0.00;0.00;;;;;;;-0.65;97.25;101067.19;6184049;23;20355;-78
2022/12/07 06:06:31;;;;;;;0.10;0.10;;;;;;;-0.52;97.49;101076.53;6156925;23;20011;-77
2022/12/07 06:09:04;;;;;;;0.00;0.00;;;;;;;-0.47;97.53;101076.81;6184600;23;20004;-77
2022/12/07 06:14:13;;;;;;;0.00;0.00;;;;;;;-0.54;97.21;101055.19;6169586;23;20097;-76
2022/12/07 06:16:39;;;;;;;0.10;0.10;;;;;;;-0.56;96.98;101074.16;6181353;23;20265;-77
2022/12/07 06:19:09;;;;;;;0.00;0.00;;;;;;;-0.75;97.32;101050.44;6185054;23;20000;-76
2022/12/07 06:21:36;;;;;;;0.00;0.00;;;;;;;-0.88;97.22;101054.53;6158091;23;20059;-76
2022/12/07 06:24:02;;;;;;;0.00;0.00;;;;;;;-1.00;97.96;101047.88;6162205;23;20001;-77
2022/12/07 06:26:28;;;;;;;0.00;0.00;;;;;;;-0.93;97.44;101069.50;6180327;23;20027;-76
2022/12/07 06:28:53;;;;;;;0.00;0.00;;;;;;;-1.09;98.13;101054.28;6161843;23;20008;-77
2022/12/07 06:31:23;;;;;;;0.00;0.00;;;;;;;-1.08;97.81;101077.44;6161185;23;20087;-77
2022/12/07 06:33:48;;;;;;;0.00;0.00;;;;;;;-1.19;98.69;101075.13;6182017;23;20479;-80
2022/12/07 06:36:13;;;;;;;0.10;0.10;;;;;;;-1.22;97.90;101084.38;6135510;23;20040;-77
2022/12/07 06:38:39;;;;;;;0.00;0.00;;;;;;;-1.28;98.90;101079.69;6156087;23;20486;-77
2022/12/07 06:41:06;;;;;;;0.00;0.00;;;;;;;-1.33;99.07;101076.66;6159327;23;20016;-78
2022/12/07 06:43:31;;;;;;;0.00;0.00;;;;;;;-1.51;98.45;101047.38;6181597;23;20024;-78
2022/12/07 06:45:59;;;;;;;0.10;0.10;;;;;;;-1.39;98.77;101067.47;6185434;23;20011;-78
2022/12/07 06:48:25;;;;;;;0.10;0.10;;;;;;;-1.27;99.04;101076.84;6157746;23;20435;-78
2022/12/07 06:50:53;;;;;;;0.00;0.00;;;;;;;-1.37;99.15;101062.78;6181961;23;20011;-78
2022/12/07 06:53:18;;;;;;;0.05;0.05;;;;;;;-1.25;99.23;101076.66;6184843;23;20427;-77
2022/12/07 06:55:44;;;;;;;0.00;0.00;;;;;;;-1.20;99.05;101076.13;6159656;23;20070;-78
2022/12/07 06:58:09;;;;;;;0.00;0.00;;;;;;;-1.16;99.35;101077.47;6140860;23;20015;-79
2022/12/07 07:00:45;;;;;;;0.00;0.00;;;;;;;-1.23;99.12;101064.75;6158977;23;20063;-82
2022/12/07 07:03:11;;;;;;;0.00;0.00;;;;;;;-1.45;99.59;101034.09;6139634;23;20028;-76
2022/12/07 07:05:36;;;;;;;0.00;0.00;;;;;;;-1.15;99.15;101081.84;6130558;23;20005;-77
2022/12/07 07:08:05;;;;;;;0.00;0.00;;;;;;;-1.16;99.35;101080.16;6124938;23;20005;-81
2022/12/07 07:10:30;;;;;;;0.00;0.00;;;;;;;-1.27;99.28;101058.06;6148830;23;20324;-77
2022/12/07 07:12:58;;;;;;;0.00;0.00;;;;;;;-1.29;100.00;101060.06;6151636;23;20009;-78
2022/12/07 07:15:24;;;;;;;0.00;0.00;;;;;;;-1.23;100.00;101072.81;6126893;23;20015;-77
2022/12/07 07:17:49;;;;;;;0.00;0.00;;;;;;;-1.32;99.89;101068.44;6101158;23;20095;-78
2022/12/07 07:20:15;;;;;;;0.00;0.00;;;;;;;-1.33;100.00;101064.13;6153363;23;20011;-78
2022/12/07 07:22:40;;;;;;;0.00;0.00;;;;;;;-1.17;99.82;101089.22;6102891;23;20012;-78
2022/12/07 07:25:09;;;;;;;0.00;0.00;;;;;;;-1.25;99.85;101079.34;6126543;23;20333;-77
2022/12/07 07:27:35;;;;;;;0.00;0.00;;;;;;;-1.12;99.89;101097.59;6178747;23;20704;-78
2022/12/07 07:30:00;;;;;;;0.00;0.00;;;;;;;-1.21;100.00;101095.94;6149966;23;20016;-79
2022/12/07 07:32:26;;;;;;;0.00;0.00;;;;;;;-1.21;100.00;101082.50;6153918;23;20016;-79
2022/12/07 07:34:51;;;;;;;0.00;0.00;;;;;;;-1.21;100.00;101090.56;6101921;23;20008;-78
2022/12/07 07:37:18;;;;;;;0.00;0.00;;;;;;;-1.29;100.00;101080.69;6102598;23;20012;-76
2022/12/07 07:39:45;;;;;;;0.00;0.00;;;;;;;-1.44;100.00;101067.16;6127645;23;20059;-77
2022/12/07 07:42:13;;;;;;;0.00;0.00;;;;;;;-1.56;100.00;101053.25;6149155;23;20035;-75
2022/12/07 07:44:41;;;;;;;0.00;0.00;;;;;;;-1.53;100.00;101057.44;6129799;23;20005;-78
2022/12/07 07:47:06;;;;;;;0.00;0.00;;;;;;;-1.46;100.00;101080.75;6151612;23;20045;-76
2022/12/07 07:49:32;;;;;;;0.00;0.00;;;;;;;-1.65;100.00;101057.81;6154698;23;20392;-76
2022/12/07 07:51:57;;;;;;;0.00;0.00;;;;;;;-1.56;100.00;101084.59;6103771;23;20013;-77
2022/12/07 07:54:23;;;;;;;0.00;0.00;;;;;;;-1.61;100.00;101082.44;6131571;23;20100;-77
2022/12/07 07:56:59;;;;;;;0.00;0.00;;;;;;;-1.66;100.00;101069.53;6130066;23;20625;-76
2022/12/07 07:59:25;;;;;;;0.00;0.00;;;;;;;-1.61;100.00;101061.81;6108089;23;20087;-77
2022/12/07 08:01:53;;;;;;;0.00;0.00;;;;;;;-1.44;100.00;101085.94;6182202;23;20009;-78
2022/12/07 08:04:18;;;;;;;0.00;0.00;;;;;;;-1.49;100.00;101077.53;6208135;23;20076;-79
2022/12/07 08:06:43;;;;;;;0.10;0.10;;;;;;;-1.40;100.00;101095.31;6135671;23;20076;-77
2022/12/07 08:09:10;;;;;;;0.00;0.00;;;;;;;-1.45;100.00;101086.94;6157841;23;20013;-77
2022/12/07 08:11:36;;;;;;;0.10;0.10;;;;;;;-1.47;100.00;101088.97;6130910;23;20012;-77
2022/12/07 08:14:02;;;;;;;0.00;0.00;;;;;;;-1.37;100.00;101083.38;6209836;23;20011;-77
2022/12/07 08:16:27;;;;;;;0.00;0.00;;;;;;;-1.25;100.00;101093.59;6180947;23;20036;-78
2022/12/07 08:18:52;;;;;;;0.00;0.00;;;;;;;-1.16;100.00;101102.47;6184185;23;20040;-77
2022/12/07 08:21:18;;;;;;;0.00;0.00;;;;;;;-1.16;100.00;101088.22;6155094;23;20139;-78
2022/12/07 08:23:45;;;;;;;0.00;0.00;;;;;;;-1.13;100.00;101085.19;6184786;23;20423;-77
2022/12/07 08:26:14;;;;;;;0.00;0.00;;;;;;;-0.97;100.00;101103.91;6135967;23;20474;-76
2022/12/07 08:28:40;;;;;;;0.00;0.00;;;;;;;-0.95;100.00;101096.53;6182356;23;20004;-78
2022/12/07 08:31:19;;;;;;;0.00;0.00;;;;;;;-0.92;100.00;101085.44;6209491;23;20090;-77
2022/12/07 08:33:49;;;;;;;0.10;0.10;;;;;;;-0.88;100.00;101077.84;6182901;23;20004;-77
2022/12/07 08:36:18;;;;;;;0.10;0.10;;;;;;;-0.63;100.00;101108.13;6185678;23;20080;-76
2022/12/07 08:38:46;;;;;;;0.10;0.10;;;;;;;-0.69;100.00;101079.28;6159974;23;20023;-76
2022/12/07 08:41:11;;;;;;;0.10;0.10;;;;;;;-0.54;100.00;101099.03;6187335;23;20063;-77
2022/12/07 08:44:02;;;;;;;0.10;0.10;;;;;;;-0.51;100.00;101079.03;6159941;23;20012;-77
2022/12/07 08:46:59;;;;;;;0.00;0.00;;;;;;;-0.43;100.00;101073.59;6188654;23;20447;-76
2022/12/07 08:49:52;;;;;;;0.10;0.10;;;;;;;-0.30;100.00;101088.31;6186765;23;20304;-76
2022/12/07 08:52:29;;;;;;;0.10;0.10;;;;;;;-0.17;100.00;101091.25;6183416;23;20012;-76
2022/12/07 08:54:58;;;;;;;0.00;0.00;;;;;;;-0.08;100.00;101100.09;6188602;23;20323;-76
2022/12/07 08:57:23;;;;;;;0.00;0.00;;;;;;;-0.03;100.00;101076.16;6185391;23;20041;-77
2022/12/07 08:59:51;;;;;;;0.00;0.00;;;;;;;0.09;100.00;101085.50;6186788;23;20001;-75
2022/12/07 09:02:44;;;;;;;0.00;0.00;;;;;;;0.14;100.00;101085.78;6188566;23;20026;-76
2022/12/07 09:05:10;;;;;;;0.00;0.00;;;;;;;0.22;100.00;101078.66;6186480;23;20627;-78
2022/12/07 09:07:37;;;;;;;0.00;0.00;;;;;;;0.40;100.00;101098.00;6182285;23;20000;-76
2022/12/07 09:10:04;;;;;;;0.00;0.00;;;;;;;0.45;100.00;101090.22;6160760;23;20046;-77
2022/12/07 09:12:30;;;;;;;0.00;0.00;;;;;;;0.48;99.81;101083.63;6188322;23;20070;-77
2022/12/07 09:14:57;;;;;;;0.00;0.00;;;;;;;0.63;99.43;101092.56;6185250;23;20009;-76
2022/12/07 09:17:26;;;;;;;0.00;0.00;;;;;;;0.67;99.17;101084.94;6161524;23;20011;-77
2022/12/07 09:19:51;;;;;;;0.00;0.00;;;;;;;0.83;98.29;101087.47;6182777;23;20012;-77
2022/12/07 09:22:17;;;;;;;0.00;0.00;;;;;;;1.04;98.83;101099.38;6162559;23;20095;-77
2022/12/07 09:24:43;;;;;;;0.00;0.00;;;;;;;1.21;98.12;101090.06;6158844;23;20159;-78
2022/12/07 09:27:08;;;;;;;0.00;0.00;;;;;;;1.49;97.52;101085.81;6138022;23;20000;-78
2022/12/07 09:29:36;;;;;;;0.00;0.00;;;;;;;2.93;99.52;101088.28;6137098;23;20445;-78
2022/12/07 09:32:01;;;;;;;0.08;0.08;;;;;;;6.10;92.23;101076.00;6183828;23;20004;-78
2022/12/07 09:34:32;;;;;;;0.10;0.10;;;;;;;9.32;75.38;101093.38;6185905;23;20467;-78
2022/12/07 09:37:00;;;;;;;0.00;0.00;;;;;;;12.28;62.89;101094.47;6158524;23;20019;-77
2022/12/07 09:39:26;;;;;;;0.00;0.00;;;;;;;14.72;54.41;101090.44;6212630;23;20055;-76
2022/12/07 09:41:57;;;;;;;0.05;0.05;;;;;;;16.71;48.91;101116.41;6136048;23;20335;-78
2022/12/07 09:44:26;;;;;;;0.00;0.00;;;;;;;17.81;46.31;101099.09;6207439;23;20000;-76
2022/12/07 09:46:53;;;;;;;0.00;0.00;;;;;;;18.29;44.91;101110.03;6162123;23;20423;-77
2022/12/07 09:49:25;;;;;;;0.00;0.00;;;;;;;19.15;43.86;101113.53;6180621;23;20008;-77
2022/12/07 09:52:27;;;;;;;0.00;0.00;;;;;;;20.11;42.87;101133.16;6186022;23;20497;-77
2022/12/07 09:54:53;;;;;;;0.00;0.00;;;;;;;20.80;40.88;101132.06;6104925;23;20008;-77
2022/12/07 09:57:28;;;;;;;0.00;0.00;;;;;;;21.39;40.35;101121.53;6162084;23;20019;-77
2022/12/07 09:59:56;;;;;;;0.00;0.00;;;;;;;21.42;40.03;101118.09;6185526;23;20403;-77
2022/12/07 10:02:36;;;;;;;0.00;0.00;;;;;;;22.06;39.35;101105.56;6183043;23;20036;-77
2022/12/07 10:05:05;;;;;;;0.00;0.00;;;;;;;23.18;37.87;101094.56;6187261;23;20067;-77
2022/12/07 10:07:31;;;;;;;0.00;0.00;;;;;;;24.05;36.79;101109.16;6184147;23;20043;-77
2022/12/07 10:09:59;;;;;;;0.00;0.00;;;;;;;24.32;34.57;101095.75;6182580;23;20012;-78
2022/12/07 10:12:25;;;;;;;0.00;0.00;;;;;;;25.00;34.81;101108.50;6159445;23;20094;-78
2022/12/07 10:15:03;;;;;;;0.00;0.00;;;;;;;25.43;33.49;101115.56;6134657;23;20013;-76
2022/12/07 10:17:34;;;;;;;0.00;0.00;;;;;;;26.04;33.12;101111.03;6184046;23;20016;-76
2022/12/07 10:20:24;;;;;;;0.00;0.00;;;;;;;26.48;32.83;101103.47;6183581;23;20000;-78
2022/12/07 10:23:13;;;;;;;0.00;0.00;;;;;;;26.41;31.20;101096.88;6185313;23;20036;-78
2022/12/07 10:25:40;;;;;;;0.00;0.00;;;;;;;26.58;31.08;101085.31;6184369;23;20008;-78
2022/12/07 10:28:08;;;;;;;0.00;0.00;;;;;;;26.52;29.70;101092.38;6136661;23;20008;-78
2022/12/07 10:30:57;;;;;;;;;;;;;;;;;;;;;
2022/12/07 10:33:34;;;;;;;0.00;0.00;;;;;;;27.07;28.92;101074.97;6214102;23;20056;-77
2022/12/07 10:36:17;;;;;;;0.00;0.00;;;;;;;27.64;28.75;101072.69;6184621;23;20321;-78
2022/12/07 10:39:17;;;;;;;0.00;0.00;;;;;;;27.21;28.21;101080.13;6185839;23;20001;-78
2022/12/07 10:42:02;;;;;;;0.00;0.00;;;;;;;26.88;29.45;101059.66;6177201;23;20469;-76
2022/12/07 10:44:30;;;;;;;0.00;0.00;;;;;;;27.45;27.75;101054.66;6186597;23;20005;-75
2022/12/07 10:47:17;;;;;;;0.00;0.00;;;;;;;28.26;27.19;101064.38;6182295;23;20080;-77
2022/12/07 10:49:45;;;;;;;0.00;0.00;;;;;;;28.61;24.71;101074.72;6211341;23;20738;-79
2022/12/07 10:52:22;;;;;;;0.00;0.00;;;;;;;29.21;23.91;101073.28;6178652;23;20009;-79
2022/12/07 10:55:06;;;;;;;0.00;0.00;;;;;;;30.08;23.19;101064.88;6185036;23;20005;-80
2022/12/07 10:57:41;;;;;;;0.00;0.00;;;;;;;30.44;21.89;101062.44;6207557;23;19996;-78
2022/12/07 11:00:22;;;;;;;0.00;0.00;;;;;;;31.34;22.41;101059.59;6184817;23;20069;-84
2022/12/07 11:03:11;;;;;;;0.00;0.00;;;;;;;31.54;21.28;101048.81;6181914;23;20024;-78
2022/12/07 11:05:52;;;;;;;0.00;0.00;;;;;;;31.56;21.55;101045.59;6212802;23;20443;-78
2022/12/07 11:08:26;;;;;;;0.00;0.00;;;;;;;31.95;21.78;101047.81;6184977;23;20004;-79
2022/12/07 11:11:09;;;;;;;0.00;0.00;;;;;;;32.29;21.74;101036.22;6210593;23;20005;-77
2022/12/07 11:13:53;;;;;;;0.00;0.00;;;;;;;32.82;21.37;101046.00;6183124;23;20011;-78
2022/12/07 11:16:32;;;;;;;0.00;0.00;;;;;;;33.29;20.04;101026.13;6205801;23;20412;-79
2022/12/07 11:19:25;;;;;;;0.00;0.00;;;;;;;33.79;19.74;101030.84;6181062;23;20062;-77
2022/12/07 11:22:12;;;;;;;0.00;0.00;;;;;;;34.20;18.50;101021.69;6180230;23;20001;-79
2022/12/07 11:25:09;;;;;;;0.00;0.00;;;;;;;34.42;19.29;101022.41;6179788;23;20051;-78
2022/12/07 11:28:04;;;;;;;0.00;0.00;;;;;;;34.43;17.81;100999.28;6167445;23;20004;-79
2022/12/07 11:30:36;;;;;;;0.00;0.00;;;;;;;34.77;17.39;101003.47;6189393;23;20004;-77
2022/12/07 11:33:29;;;;;;;0.00;0.00;;;;;;;35.25;18.06;101002.59;6210026;23;20004;-79
2022/12/07 11:36:22;;;;;;;0.00;0.00;;;;;;;35.16;16.64;100993.75;6183249;23;20375;-76
2022/12/07 11:38:53;;;;;;;0.00;0.00;;;;;;;35.24;16.87;100992.44;6178762;23;20813;-77
2022/12/07 11:41:26;;;;;;;0.00;0.00;;;;;;;35.10;18.00;100981.22;6181428;23;20331;-77
2022/12/07 11:44:07;;;;;;;0.00;0.00;;;;;;;35.61;17.17;100981.47;6178835;23;20004;-76
2022/12/07 11:46:56;;;;;;;0.00;0.00;;;;;;;36.07;16.72;100984.91;6209566;23;20034;-76
2022/12/07 11:49:40;;;;;;;0.00;0.00;;;;;;;36.51;16.93;100977.34;6182624;23;19997;-76
2022/12/07 11:52:09;;;;;;;;;;;;;;;37.27;16.55;100981.69;6179353;23;20205;-78
2022/12/07 11:54:43;;;;;;;0.00;0.00;;;;;;;37.53;15.87;100968.53;6183798;23;19904;-78
2022/12/07 11:57:27;;;;;;;0.00;0.00;;;;;;;38.08;15.21;100968.91;6181371;23;20031;-76
2022/12/07 12:00:02;;;;;;;0.00;0.00;;;;;;;37.93;15.48;100961.97;6187395;23;19996;-78
2022/12/07 12:02:44;;;;;;;0.00;0.00;;;;;;;37.69;15.45;100960.00;6185111;23;20016;-78